sensor_id;sensor_type;location;lat;lon;timestamp;temperature;humidity
3172;DHT22;1597;51.572;6.992;2023-08-06T00:00:23;17.30;99.90
3172;DHT22;1597;51.572;6.992;2023-08-06T00:02:49;17.30;99.90
3172;DHT22;1597;51.572;6.992;2023-08-06T00:05:15;17.30;99.90
3172;DHT22;1597;51.572;6.992;2023-08-06T00:07:50;17.30;99.90
3172;DHT22;1597;51.572;6.992;2023-08-06T00:10:16;17.30;99.90
3172;DHT22;1597;51.572;6.992;2023-08-06T00:12:46;17.30;99.90
3172;DHT22;1597;51.572;6.992;2023-08-06T00:15:12;17.30;99.90
3172;DHT22;1597;51.572;6.992;2023-08-06T00:17:38;17.30;99.90
3172;DHT22;1597;51.572;6.992;2023-08-06T00:20:04;17.30;99.90
3172;DHT22;1597;51.572;6.992;2023-08-06T00:22:35;17.30;99.90
3172;DHT22;1597;51.572;6.992;2023-08-06T00:25:02;17.40;99.90
3172;DHT22;1597;51.572;6.992;2023-08-06T00:27:29;17.50;99.90
3172;DHT22;1597;51.572;6.992;2023-08-06T00:29:55;17.60;99.90
3172;DHT22;1597;51.572;6.992;2023-08-06T00:32:21;17.60;99.90
3172;DHT22;1597;51.572;6.992;2023-08-06T00:34:47;17.60;99.90
3172;DHT22;1597;51.572;6.992;2023-08-06T00:37:15;17.60;99.90
3172;DHT22;1597;51.572;6.992;2023-08-06T00:39:42;17.60;99.90
3172;DHT22;1597;51.572;6.992;2023-08-06T00:42:09;17.70;99.90
3172;DHT22;1597;51.572;6.992;2023-08-06T00:44:35;17.80;99.90
3172;DHT22;1597;51.572;6.992;2023-08-06T00:47:02;17.80;99.90
3172;DHT22;1597;51.572;6.992;2023-08-06T00:49:28;17.70;99.90
3172;DHT22;1597;51.572;6.992;2023-08-06T00:51:55;17.70;99.90
3172;DHT22;1597;51.572;6.992;2023-08-06T00:54:23;17.70;99.90
3172;DHT22;1597;51.572;6.992;2023-08-06T00:56:49;17.70;99.90
3172;DHT22;1597;51.572;6.992;2023-08-06T00:59:15;17.60;99.90
3172;DHT22;1597;51.572;6.992;2023-08-06T01:01:41;17.60;99.90
3172;DHT22;1597;51.572;6.992;2023-08-06T01:04:07;17.50;99.90
3172;DHT22;1597;51.572;6.992;2023-08-06T01:06:52;17.50;99.90
3172;DHT22;1597;51.572;6.992;2023-08-06T01:09:45;17.50;99.90
3172;DHT22;1597;51.572;6.992;2023-08-06T01:12:48;17.60;99.90
3172;DHT22;1597;51.572;6.992;2023-08-06T01:15:26;17.60;99.90
3172;DHT22;1597;51.572;6.992;2023-08-06T01:17:54;17.50;99.90
3172;DHT22;1597;51.572;6.992;2023-08-06T01:20:20;17.50;99.90
3172;DHT22;1597;51.572;6.992;2023-08-06T01:22:46;17.50;99.90
3172;DHT22;1597;51.572;6.992;2023-08-06T01:25:15;17.60;99.90
3172;DHT22;1597;51.572;6.992;2023-08-06T01:27:52;17.60;99.90
3172;DHT22;1597;51.572;6.992;2023-08-06T01:30:27;17.70;99.90
3172;DHT22;1597;51.572;6.992;2023-08-06T01:32:58;17.60;99.90
3172;DHT22;1597;51.572;6.992;2023-08-06T01:35:27;17.60;99.90
3172;DHT22;1597;51.572;6.992;2023-08-06T01:37:54;17.60;99.90
3172;DHT22;1597;51.572;6.992;2023-08-06T01:40:22;17.50;99.90
3172;DHT22;1597;51.572;6.992;2023-08-06T01:42:47;17.50;99.90
3172;DHT22;1597;51.572;6.992;2023-08-06T01:45:14;17.40;99.90
3172;DHT22;1597;51.572;6.992;2023-08-06T01:47:40;17.40;99.90
3172;DHT22;1597;51.572;6.992;2023-08-06T01:50:06;17.40;99.90
3172;DHT22;1597;51.572;6.992;2023-08-06T01:52:31;17.40;99.90
3172;DHT22;1597;51.572;6.992;2023-08-06T01:54:57;17.40;99.90
3172;DHT22;1597;51.572;6.992;2023-08-06T01:57:23;17.50;99.90
3172;DHT22;1597;51.572;6.992;2023-08-06T01:59:49;17.50;99.90
3172;DHT22;1597;51.572;6.992;2023-08-06T02:02:15;17.50;99.90
3172;DHT22;1597;51.572;6.992;2023-08-06T02:04:40;17.50;99.90
3172;DHT22;1597;51.572;6.992;2023-08-06T02:07:06;17.50;99.90
3172;DHT22;1597;51.572;6.992;2023-08-06T02:09:32;17.50;99.90
3172;DHT22;1597;51.572;6.992;2023-08-06T02:11:58;17.50;99.90
3172;DHT22;1597;51.572;6.992;2023-08-06T02:14:24;17.50;99.90
3172;DHT22;1597;51.572;6.992;2023-08-06T02:16:50;17.50;99.90
3172;DHT22;1597;51.572;6.992;2023-08-06T02:19:15;17.60;99.90
3172;DHT22;1597;51.572;6.992;2023-08-06T02:21:41;17.60;99.90
3172;DHT22;1597;51.572;6.992;2023-08-06T02:24:07;17.60;99.90
3172;DHT22;1597;51.572;6.992;2023-08-06T02:26:33;17.50;99.90
3172;DHT22;1597;51.572;6.992;2023-08-06T02:28:59;17.50;99.90
3172;DHT22;1597;51.572;6.992;2023-08-06T02:31:24;17.40;99.90
3172;DHT22;1597;51.572;6.992;2023-08-06T02:33:50;17.40;99.90
3172;DHT22;1597;51.572;6.992;2023-08-06T02:36:16;17.40;99.90
3172;DHT22;1597;51.572;6.992;2023-08-06T02:38:42;17.40;99.90
3172;DHT22;1597;51.572;6.992;2023-08-06T02:41:07;17.40;99.90
3172;DHT22;1597;51.572;6.992;2023-08-06T02:43:33;17.50;99.90
3172;DHT22;1597;51.572;6.992;2023-08-06T02:46:00;17.50;99.90
3172;DHT22;1597;51.572;6.992;2023-08-06T02:48:26;17.50;99.90
3172;DHT22;1597;51.572;6.992;2023-08-06T02:50:52;17.60;99.90
3172;DHT22;1597;51.572;6.992;2023-08-06T02:53:17;17.60;99.90
3172;DHT22;1597;51.572;6.992;2023-08-06T02:55:47;17.50;99.90
3172;DHT22;1597;51.572;6.992;2023-08-06T02:58:14;17.50;99.90
3172;DHT22;1597;51.572;6.992;2023-08-06T03:00:41;17.50;99.90
3172;DHT22;1597;51.572;6.992;2023-08-06T03:03:07;17.60;99.90
3172;DHT22;1597;51.572;6.992;2023-08-06T03:05:33;17.60;99.90
3172;DHT22;1597;51.572;6.992;2023-08-06T03:07:59;17.60;99.90
3172;DHT22;1597;51.572;6.992;2023-08-06T03:10:24;17.50;99.90
3172;DHT22;1597;51.572;6.992;2023-08-06T03:12:50;17.50;99.90
3172;DHT22;1597;51.572;6.992;2023-08-06T03:15:16;17.40;99.90
3172;DHT22;1597;51.572;6.992;2023-08-06T03:17:42;17.50;99.90
3172;DHT22;1597;51.572;6.992;2023-08-06T03:20:09;17.50;99.90
3172;DHT22;1597;51.572;6.992;2023-08-06T03:22:35;17.40;99.90
3172;DHT22;1597;51.572;6.992;2023-08-06T03:25:01;17.40;99.90
3172;DHT22;1597;51.572;6.992;2023-08-06T03:27:28;17.40;99.90
3172;DHT22;1597;51.572;6.992;2023-08-06T03:29:53;17.40;99.90
3172;DHT22;1597;51.572;6.992;2023-08-06T03:32:19;17.30;99.90
3172;DHT22;1597;51.572;6.992;2023-08-06T03:34:45;17.30;99.90
3172;DHT22;1597;51.572;6.992;2023-08-06T03:37:11;17.30;99.90
3172;DHT22;1597;51.572;6.992;2023-08-06T03:39:37;17.30;99.90
3172;DHT22;1597;51.572;6.992;2023-08-06T03:42:03;17.40;99.90
3172;DHT22;1597;51.572;6.992;2023-08-06T03:44:29;17.40;99.90
3172;DHT22;1597;51.572;6.992;2023-08-06T03:46:56;17.30;99.90
3172;DHT22;1597;51.572;6.992;2023-08-06T03:49:21;17.30;99.90
3172;DHT22;1597;51.572;6.992;2023-08-06T03:51:47;17.40;99.90
3172;DHT22;1597;51.572;6.992;2023-08-06T03:54:13;17.50;99.90
3172;DHT22;1597;51.572;6.992;2023-08-06T03:56:39;17.40;99.90
3172;DHT22;1597;51.572;6.992;2023-08-06T03:59:05;17.30;99.90
3172;DHT22;1597;51.572;6.992;2023-08-06T04:01:30;17.40;99.90
3172;DHT22;1597;51.572;6.992;2023-08-06T04:03:56;17.40;99.90
3172;DHT22;1597;51.572;6.992;2023-08-06T04:06:22;17.50;99.90
3172;DHT22;1597;51.572;6.992;2023-08-06T04:08:48;17.60;99.90
3172;DHT22;1597;51.572;6.992;2023-08-06T04:11:13;17.60;99.90
3172;DHT22;1597;51.572;6.992;2023-08-06T04:13:42;17.60;99.90
3172;DHT22;1597;51.572;6.992;2023-08-06T04:16:09;17.60;99.90
3172;DHT22;1597;51.572;6.992;2023-08-06T04:18:35;17.60;99.90
3172;DHT22;1597;51.572;6.992;2023-08-06T04:21:02;17.50;99.90
3172;DHT22;1597;51.572;6.992;2023-08-06T04:23:28;17.50;99.90
3172;DHT22;1597;51.572;6.992;2023-08-06T04:25:57;17.50;99.90
3172;DHT22;1597;51.572;6.992;2023-08-06T04:28:23;17.50;99.90
3172;DHT22;1597;51.572;6.992;2023-08-06T04:30:49;17.50;99.90
3172;DHT22;1597;51.572;6.992;2023-08-06T04:33:14;17.60;99.90
3172;DHT22;1597;51.572;6.992;2023-08-06T04:35:40;17.70;99.90
3172;DHT22;1597;51.572;6.992;2023-08-06T04:38:06;17.80;99.90
3172;DHT22;1597;51.572;6.992;2023-08-06T04:40:35;17.80;99.90
3172;DHT22;1597;51.572;6.992;2023-08-06T04:43:02;17.70;99.90
3172;DHT22;1597;51.572;6.992;2023-08-06T04:45:28;17.70;99.90
3172;DHT22;1597;51.572;6.992;2023-08-06T04:47:54;17.70;99.90
3172;DHT22;1597;51.572;6.992;2023-08-06T04:50:20;17.70;99.90
3172;DHT22;1597;51.572;6.992;2023-08-06T04:52:46;17.80;99.90
3172;DHT22;1597;51.572;6.992;2023-08-06T04:55:11;17.80;99.90
3172;DHT22;1597;51.572;6.992;2023-08-06T04:57:37;17.90;99.90
3172;DHT22;1597;51.572;6.992;2023-08-06T05:00:04;17.90;99.90
3172;DHT22;1597;51.572;6.992;2023-08-06T05:02:30;17.90;99.90
3172;DHT22;1597;51.572;6.992;2023-08-06T05:04:58;17.90;99.90
3172;DHT22;1597;51.572;6.992;2023-08-06T05:07:24;17.90;99.90
3172;DHT22;1597;51.572;6.992;2023-08-06T05:09:49;17.80;99.90
3172;DHT22;1597;51.572;6.992;2023-08-06T05:12:15;17.80;99.90
3172;DHT22;1597;51.572;6.992;2023-08-06T05:14:41;17.80;99.90
3172;DHT22;1597;51.572;6.992;2023-08-06T05:17:07;17.90;99.90
3172;DHT22;1597;51.572;6.992;2023-08-06T05:19:32;17.90;99.90
3172;DHT22;1597;51.572;6.992;2023-08-06T05:21:58;17.90;99.90
3172;DHT22;1597;51.572;6.992;2023-08-06T05:24:24;18.00;99.90
3172;DHT22;1597;51.572;6.992;2023-08-06T05:26:50;18.00;99.90
3172;DHT22;1597;51.572;6.992;2023-08-06T05:29:16;18.10;99.90
3172;DHT22;1597;51.572;6.992;2023-08-06T05:31:42;18.00;99.90
3172;DHT22;1597;51.572;6.992;2023-08-06T05:34:08;17.90;99.90
3172;DHT22;1597;51.572;6.992;2023-08-06T05:36:34;17.80;99.90
3172;DHT22;1597;51.572;6.992;2023-08-06T05:38:59;17.70;99.90
3172;DHT22;1597;51.572;6.992;2023-08-06T05:41:25;17.60;99.90
3172;DHT22;1597;51.572;6.992;2023-08-06T05:43:51;17.60;99.90
3172;DHT22;1597;51.572;6.992;2023-08-06T05:46:17;17.60;99.90
3172;DHT22;1597;51.572;6.992;2023-08-06T05:48:42;17.50;99.90
3172;DHT22;1597;51.572;6.992;2023-08-06T05:51:08;17.40;99.90
3172;DHT22;1597;51.572;6.992;2023-08-06T05:53:34;17.50;99.90
3172;DHT22;1597;51.572;6.992;2023-08-06T05:56:00;17.60;99.90
3172;DHT22;1597;51.572;6.992;2023-08-06T05:58:26;17.70;99.90
3172;DHT22;1597;51.572;6.992;2023-08-06T06:00:54;17.80;99.90
3172;DHT22;1597;51.572;6.992;2023-08-06T06:03:20;17.80;99.90
3172;DHT22;1597;51.572;6.992;2023-08-06T06:05:46;17.90;99.90
3172;DHT22;1597;51.572;6.992;2023-08-06T06:08:11;17.90;99.90
3172;DHT22;1597;51.572;6.992;2023-08-06T06:10:37;17.90;99.90
3172;DHT22;1597;51.572;6.992;2023-08-06T06:13:03;18.00;99.90
3172;DHT22;1597;51.572;6.992;2023-08-06T06:15:29;17.90;99.90
3172;DHT22;1597;51.572;6.992;2023-08-06T06:17:55;17.90;99.90
3172;DHT22;1597;51.572;6.992;2023-08-06T06:20:20;17.90;99.90
3172;DHT22;1597;51.572;6.992;2023-08-06T06:22:46;17.80;99.90
3172;DHT22;1597;51.572;6.992;2023-08-06T06:25:12;17.80;99.90
3172;DHT22;1597;51.572;6.992;2023-08-06T06:27:38;17.90;99.90
3172;DHT22;1597;51.572;6.992;2023-08-06T06:30:04;17.80;99.90
3172;DHT22;1597;51.572;6.992;2023-08-06T06:32:30;17.80;99.90
3172;DHT22;1597;51.572;6.992;2023-08-06T06:34:56;17.80;99.90
3172;DHT22;1597;51.572;6.992;2023-08-06T06:37:22;17.80;99.90
3172;DHT22;1597;51.572;6.992;2023-08-06T06:39:47;17.80;99.90
3172;DHT22;1597;51.572;6.992;2023-08-06T06:42:13;17.80;99.90
3172;DHT22;1597;51.572;6.992;2023-08-06T06:44:40;17.80;99.90
3172;DHT22;1597;51.572;6.992;2023-08-06T06:47:06;17.90;99.90
3172;DHT22;1597;51.572;6.992;2023-08-06T06:49:32;17.90;99.90
3172;DHT22;1597;51.572;6.992;2023-08-06T06:51:58;17.90;99.90
3172;DHT22;1597;51.572;6.992;2023-08-06T06:54:24;17.90;99.90
3172;DHT22;1597;51.572;6.992;2023-08-06T06:56:50;18.00;99.90
3172;DHT22;1597;51.572;6.992;2023-08-06T06:59:16;18.10;99.90
3172;DHT22;1597;51.572;6.992;2023-08-06T07:01:42;18.20;99.90
3172;DHT22;1597;51.572;6.992;2023-08-06T07:04:08;18.30;99.90
3172;DHT22;1597;51.572;6.992;2023-08-06T07:06:34;18.40;99.90
3172;DHT22;1597;51.572;6.992;2023-08-06T07:08:59;18.40;99.90
3172;DHT22;1597;51.572;6.992;2023-08-06T07:11:25;18.20;99.90
3172;DHT22;1597;51.572;6.992;2023-08-06T07:13:56;18.00;99.90
3172;DHT22;1597;51.572;6.992;2023-08-06T07:16:26;18.00;99.90
3172;DHT22;1597;51.572;6.992;2023-08-06T07:18:53;18.00;99.90
3172;DHT22;1597;51.572;6.992;2023-08-06T07:21:20;18.00;99.90
3172;DHT22;1597;51.572;6.992;2023-08-06T07:23:46;17.90;99.90
3172;DHT22;1597;51.572;6.992;2023-08-06T07:26:11;17.90;99.90
3172;DHT22;1597;51.572;6.992;2023-08-06T07:28:37;17.80;99.90
3172;DHT22;1597;51.572;6.992;2023-08-06T07:31:03;17.90;99.90
3172;DHT22;1597;51.572;6.992;2023-08-06T07:33:29;18.00;99.90
3172;DHT22;1597;51.572;6.992;2023-08-06T07:35:55;18.00;99.90
3172;DHT22;1597;51.572;6.992;2023-08-06T07:38:21;18.10;99.90
3172;DHT22;1597;51.572;6.992;2023-08-06T07:40:47;18.20;99.90
3172;DHT22;1597;51.572;6.992;2023-08-06T07:43:12;18.30;99.90
3172;DHT22;1597;51.572;6.992;2023-08-06T07:45:38;18.40;99.90
3172;DHT22;1597;51.572;6.992;2023-08-06T07:48:04;18.40;99.90
3172;DHT22;1597;51.572;6.992;2023-08-06T07:50:31;18.40;99.90
3172;DHT22;1597;51.572;6.992;2023-08-06T07:52:57;18.40;99.90
3172;DHT22;1597;51.572;6.992;2023-08-06T07:55:23;18.40;99.90
3172;DHT22;1597;51.572;6.992;2023-08-06T07:57:49;18.50;99.90
3172;DHT22;1597;51.572;6.992;2023-08-06T08:00:15;18.50;99.90
3172;DHT22;1597;51.572;6.992;2023-08-06T08:02:41;18.30;99.90
3172;DHT22;1597;51.572;6.992;2023-08-06T08:05:07;18.30;99.90
3172;DHT22;1597;51.572;6.992;2023-08-06T08:07:34;18.40;99.90
3172;DHT22;1597;51.572;6.992;2023-08-06T08:10:03;18.40;99.90
3172;DHT22;1597;51.572;6.992;2023-08-06T08:12:30;18.40;99.90
3172;DHT22;1597;51.572;6.992;2023-08-06T08:14:56;18.30;99.90
3172;DHT22;1597;51.572;6.992;2023-08-06T08:17:23;18.30;99.90
3172;DHT22;1597;51.572;6.992;2023-08-06T08:19:48;18.30;99.90
3172;DHT22;1597;51.572;6.992;2023-08-06T08:22:14;18.40;99.90
3172;DHT22;1597;51.572;6.992;2023-08-06T08:24:40;18.50;99.90
3172;DHT22;1597;51.572;6.992;2023-08-06T08:27:05;18.40;99.90
3172;DHT22;1597;51.572;6.992;2023-08-06T08:29:31;18.20;99.90
3172;DHT22;1597;51.572;6.992;2023-08-06T08:31:58;18.10;99.90
3172;DHT22;1597;51.572;6.992;2023-08-06T08:34:24;17.90;99.90
3172;DHT22;1597;51.572;6.992;2023-08-06T08:36:50;17.90;99.90
3172;DHT22;1597;51.572;6.992;2023-08-06T08:39:16;17.80;99.90
3172;DHT22;1597;51.572;6.992;2023-08-06T08:41:42;17.80;99.90
3172;DHT22;1597;51.572;6.992;2023-08-06T08:44:09;17.70;99.90
3172;DHT22;1597;51.572;6.992;2023-08-06T08:46:40;17.80;99.90
3172;DHT22;1597;51.572;6.992;2023-08-06T08:49:06;17.80;99.90
3172;DHT22;1597;51.572;6.992;2023-08-06T08:51:35;17.90;99.90
3172;DHT22;1597;51.572;6.992;2023-08-06T08:54:04;18.00;99.90
3172;DHT22;1597;51.572;6.992;2023-08-06T08:56:33;18.00;99.90
3172;DHT22;1597;51.572;6.992;2023-08-06T08:58:59;18.10;99.90
3172;DHT22;1597;51.572;6.992;2023-08-06T09:01:26;18.20;99.90
3172;DHT22;1597;51.572;6.992;2023-08-06T09:03:55;18.10;99.90
3172;DHT22;1597;51.572;6.992;2023-08-06T09:06:21;18.20;99.90
3172;DHT22;1597;51.572;6.992;2023-08-06T09:09:11;18.20;99.90
3172;DHT22;1597;51.572;6.992;2023-08-06T09:11:45;18.30;99.90
3172;DHT22;1597;51.572;6.992;2023-08-06T09:14:15;18.30;99.90
3172;DHT22;1597;51.572;6.992;2023-08-06T09:16:41;18.30;99.90
3172;DHT22;1597;51.572;6.992;2023-08-06T09:19:11;18.30;99.90
3172;DHT22;1597;51.572;6.992;2023-08-06T09:21:42;18.30;99.90
3172;DHT22;1597;51.572;6.992;2023-08-06T09:24:09;18.30;99.90
3172;DHT22;1597;51.572;6.992;2023-08-06T09:26:40;18.30;99.90
3172;DHT22;1597;51.572;6.992;2023-08-06T09:29:08;18.40;99.90
3172;DHT22;1597;51.572;6.992;2023-08-06T09:31:43;18.40;99.90
3172;DHT22;1597;51.572;6.992;2023-08-06T09:34:15;18.50;99.90
3172;DHT22;1597;51.572;6.992;2023-08-06T09:36:54;18.50;99.90
3172;DHT22;1597;51.572;6.992;2023-08-06T09:39:27;18.60;99.90
3172;DHT22;1597;51.572;6.992;2023-08-06T09:41:59;18.80;99.90
3172;DHT22;1597;51.572;6.992;2023-08-06T09:44:28;18.80;98.90
3172;DHT22;1597;51.572;6.992;2023-08-06T09:46:59;18.80;99.30
3172;DHT22;1597;51.572;6.992;2023-08-06T09:52:00;18.80;99.90
3172;DHT22;1597;51.572;6.992;2023-08-06T09:54:27;18.80;99.90
3172;DHT22;1597;51.572;6.992;2023-08-06T09:56:54;18.70;99.90
3172;DHT22;1597;51.572;6.992;2023-08-06T09:59:20;18.60;99.90
3172;DHT22;1597;51.572;6.992;2023-08-06T10:01:46;18.50;99.90
3172;DHT22;1597;51.572;6.992;2023-08-06T10:04:14;18.40;99.90
3172;DHT22;1597;51.572;6.992;2023-08-06T10:06:42;18.40;99.90
3172;DHT22;1597;51.572;6.992;2023-08-06T10:09:09;18.40;99.90
3172;DHT22;1597;51.572;6.992;2023-08-06T10:11:47;18.30;99.90
3172;DHT22;1597;51.572;6.992;2023-08-06T10:14:30;18.20;99.90
3172;DHT22;1597;51.572;6.992;2023-08-06T10:16:58;18.30;99.90
3172;DHT22;1597;51.572;6.992;2023-08-06T10:19:26;18.30;99.90
3172;DHT22;1597;51.572;6.992;2023-08-06T10:22:13;18.40;99.90
3172;DHT22;1597;51.572;6.992;2023-08-06T10:24:53;18.40;99.90
3172;DHT22;1597;51.572;6.992;2023-08-06T10:27:32;18.40;99.90
3172;DHT22;1597;51.572;6.992;2023-08-06T10:30:23;18.40;99.90
3172;DHT22;1597;51.572;6.992;2023-08-06T10:32:54;18.50;99.90
3172;DHT22;1597;51.572;6.992;2023-08-06T10:38:09;18.70;99.90
3172;DHT22;1597;51.572;6.992;2023-08-06T10:40:47;18.80;99.90
3172;DHT22;1597;51.572;6.992;2023-08-06T10:43:46;18.90;99.90
3172;DHT22;1597;51.572;6.992;2023-08-06T10:46:22;19.00;99.90
3172;DHT22;1597;51.572;6.992;2023-08-06T10:48:51;19.00;99.90
3172;DHT22;1597;51.572;6.992;2023-08-06T10:51:17;18.80;99.90
3172;DHT22;1597;51.572;6.992;2023-08-06T10:53:48;18.50;99.90
3172;DHT22;1597;51.572;6.992;2023-08-06T10:56:17;18.20;99.90
3172;DHT22;1597;51.572;6.992;2023-08-06T10:58:49;18.10;99.90
3172;DHT22;1597;51.572;6.992;2023-08-06T11:01:17;18.00;99.90
3172;DHT22;1597;51.572;6.992;2023-08-06T11:03:45;17.90;99.90
3172;DHT22;1597;51.572;6.992;2023-08-06T11:06:20;17.90;99.90
3172;DHT22;1597;51.572;6.992;2023-08-06T11:08:51;18.00;99.90
3172;DHT22;1597;51.572;6.992;2023-08-06T11:11:19;18.00;99.90
3172;DHT22;1597;51.572;6.992;2023-08-06T11:13:47;17.90;99.90
3172;DHT22;1597;51.572;6.992;2023-08-06T11:16:23;17.90;99.90
3172;DHT22;1597;51.572;6.992;2023-08-06T11:18:52;17.90;99.90
3172;DHT22;1597;51.572;6.992;2023-08-06T11:21:22;17.90;99.90
3172;DHT22;1597;51.572;6.992;2023-08-06T11:23:51;18.00;99.90
3172;DHT22;1597;51.572;6.992;2023-08-06T11:26:21;18.10;99.90
3172;DHT22;1597;51.572;6.992;2023-08-06T11:28:49;18.10;99.90
3172;DHT22;1597;51.572;6.992;2023-08-06T11:31:22;18.10;99.90
3172;DHT22;1597;51.572;6.992;2023-08-06T11:33:51;18.10;99.90
3172;DHT22;1597;51.572;6.992;2023-08-06T11:36:33;18.10;99.90
3172;DHT22;1597;51.572;6.992;2023-08-06T11:39:03;18.10;99.90
3172;DHT22;1597;51.572;6.992;2023-08-06T11:41:33;18.10;99.90
3172;DHT22;1597;51.572;6.992;2023-08-06T11:44:03;18.10;99.90
3172;DHT22;1597;51.572;6.992;2023-08-06T11:46:29;18.10;99.90
3172;DHT22;1597;51.572;6.992;2023-08-06T11:49:15;18.10;99.90
3172;DHT22;1597;51.572;6.992;2023-08-06T11:51:41;18.10;99.90
3172;DHT22;1597;51.572;6.992;2023-08-06T11:54:07;18.00;99.90
3172;DHT22;1597;51.572;6.992;2023-08-06T11:56:33;17.90;99.90
3172;DHT22;1597;51.572;6.992;2023-08-06T11:59:01;17.60;99.90
3172;DHT22;1597;51.572;6.992;2023-08-06T12:01:27;17.50;99.90
3172;DHT22;1597;51.572;6.992;2023-08-06T12:03:59;17.30;99.90
3172;DHT22;1597;51.572;6.992;2023-08-06T12:06:29;17.20;99.90
3172;DHT22;1597;51.572;6.992;2023-08-06T12:08:55;17.10;99.90
3172;DHT22;1597;51.572;6.992;2023-08-06T12:11:23;16.90;99.90
3172;DHT22;1597;51.572;6.992;2023-08-06T12:13:54;16.70;99.90
3172;DHT22;1597;51.572;6.992;2023-08-06T12:16:22;16.60;99.90
3172;DHT22;1597;51.572;6.992;2023-08-06T12:18:49;16.50;99.90
3172;DHT22;1597;51.572;6.992;2023-08-06T12:21:15;16.50;99.90
3172;DHT22;1597;51.572;6.992;2023-08-06T12:23:40;16.50;99.90
3172;DHT22;1597;51.572;6.992;2023-08-06T12:26:07;16.50;99.90
3172;DHT22;1597;51.572;6.992;2023-08-06T12:28:32;16.50;99.90
3172;DHT22;1597;51.572;6.992;2023-08-06T12:30:58;16.50;99.90
3172;DHT22;1597;51.572;6.992;2023-08-06T12:33:24;16.40;99.90
3172;DHT22;1597;51.572;6.992;2023-08-06T12:35:50;16.10;99.90
3172;DHT22;1597;51.572;6.992;2023-08-06T12:38:17;15.90;99.90
3172;DHT22;1597;51.572;6.992;2023-08-06T12:40:43;15.70;99.90
3172;DHT22;1597;51.572;6.992;2023-08-06T12:43:08;15.70;99.90
3172;DHT22;1597;51.572;6.992;2023-08-06T12:45:34;15.60;99.90
3172;DHT22;1597;51.572;6.992;2023-08-06T12:48:00;15.40;99.90
3172;DHT22;1597;51.572;6.992;2023-08-06T12:50:26;15.30;99.90
3172;DHT22;1597;51.572;6.992;2023-08-06T12:52:52;15.20;99.90
3172;DHT22;1597;51.572;6.992;2023-08-06T12:55:19;15.20;99.90
3172;DHT22;1597;51.572;6.992;2023-08-06T12:57:45;15.20;99.90
3172;DHT22;1597;51.572;6.992;2023-08-06T13:00:11;15.10;99.90
3172;DHT22;1597;51.572;6.992;2023-08-06T13:02:39;15.10;99.90
3172;DHT22;1597;51.572;6.992;2023-08-06T13:05:05;15.10;99.90
3172;DHT22;1597;51.572;6.992;2023-08-06T13:07:31;15.10;99.90
3172;DHT22;1597;51.572;6.992;2023-08-06T13:09:58;15.10;99.90
3172;DHT22;1597;51.572;6.992;2023-08-06T13:12:24;15.10;99.90
3172;DHT22;1597;51.572;6.992;2023-08-06T13:14:50;15.10;99.90
3172;DHT22;1597;51.572;6.992;2023-08-06T13:17:18;15.20;99.90
3172;DHT22;1597;51.572;6.992;2023-08-06T13:19:44;15.30;99.90
3172;DHT22;1597;51.572;6.992;2023-08-06T13:22:10;15.30;99.90
3172;DHT22;1597;51.572;6.992;2023-08-06T13:24:36;15.40;99.90
3172;DHT22;1597;51.572;6.992;2023-08-06T13:27:02;15.40;99.90
3172;DHT22;1597;51.572;6.992;2023-08-06T13:29:28;15.50;99.90
3172;DHT22;1597;51.572;6.992;2023-08-06T13:31:54;15.50;99.90
3172;DHT22;1597;51.572;6.992;2023-08-06T13:34:20;15.50;99.90
3172;DHT22;1597;51.572;6.992;2023-08-06T13:36:46;15.60;99.90
3172;DHT22;1597;51.572;6.992;2023-08-06T13:39:12;15.60;99.90
3172;DHT22;1597;51.572;6.992;2023-08-06T13:41:38;15.60;99.90
3172;DHT22;1597;51.572;6.992;2023-08-06T13:44:05;15.60;99.90
3172;DHT22;1597;51.572;6.992;2023-08-06T13:46:30;15.70;99.90
3172;DHT22;1597;51.572;6.992;2023-08-06T13:48:56;15.80;99.90
3172;DHT22;1597;51.572;6.992;2023-08-06T13:51:23;15.80;99.90
3172;DHT22;1597;51.572;6.992;2023-08-06T13:53:48;15.80;99.90
3172;DHT22;1597;51.572;6.992;2023-08-06T13:56:14;15.80;99.90
3172;DHT22;1597;51.572;6.992;2023-08-06T13:58:43;15.80;99.90
3172;DHT22;1597;51.572;6.992;2023-08-06T14:01:12;15.90;99.90
3172;DHT22;1597;51.572;6.992;2023-08-06T14:03:40;15.90;99.90
3172;DHT22;1597;51.572;6.992;2023-08-06T14:06:05;15.90;99.90
3172;DHT22;1597;51.572;6.992;2023-08-06T14:08:31;15.90;99.90
3172;DHT22;1597;51.572;6.992;2023-08-06T14:10:57;15.90;99.90
3172;DHT22;1597;51.572;6.992;2023-08-06T14:13:23;15.90;99.90
3172;DHT22;1597;51.572;6.992;2023-08-06T14:15:49;15.90;99.90
3172;DHT22;1597;51.572;6.992;2023-08-06T14:18:16;15.90;99.90
3172;DHT22;1597;51.572;6.992;2023-08-06T14:20:43;15.90;99.90
3172;DHT22;1597;51.572;6.992;2023-08-06T14:23:09;15.90;99.90
3172;DHT22;1597;51.572;6.992;2023-08-06T14:25:35;15.90;99.90
3172;DHT22;1597;51.572;6.992;2023-08-06T14:28:03;15.90;99.90
3172;DHT22;1597;51.572;6.992;2023-08-06T14:30:29;15.90;99.90
3172;DHT22;1597;51.572;6.992;2023-08-06T14:32:55;16.00;99.90
3172;DHT22;1597;51.572;6.992;2023-08-06T14:35:21;16.00;99.90
3172;DHT22;1597;51.572;6.992;2023-08-06T14:37:46;16.00;99.90
3172;DHT22;1597;51.572;6.992;2023-08-06T14:40:13;16.00;99.90
3172;DHT22;1597;51.572;6.992;2023-08-06T14:42:40;16.00;99.90
3172;DHT22;1597;51.572;6.992;2023-08-06T14:45:06;16.10;99.90
3172;DHT22;1597;51.572;6.992;2023-08-06T14:47:32;16.10;99.90
3172;DHT22;1597;51.572;6.992;2023-08-06T14:49:58;16.10;99.90
3172;DHT22;1597;51.572;6.992;2023-08-06T14:52:24;16.20;99.90
3172;DHT22;1597;51.572;6.992;2023-08-06T14:54:51;16.10;99.90
3172;DHT22;1597;51.572;6.992;2023-08-06T14:57:20;16.10;99.90
3172;DHT22;1597;51.572;6.992;2023-08-06T14:59:47;16.10;99.90
3172;DHT22;1597;51.572;6.992;2023-08-06T15:02:15;16.10;99.90
3172;DHT22;1597;51.572;6.992;2023-08-06T15:04:41;16.10;99.90
3172;DHT22;1597;51.572;6.992;2023-08-06T15:07:09;16.10;99.90
3172;DHT22;1597;51.572;6.992;2023-08-06T15:09:35;16.10;99.90
3172;DHT22;1597;51.572;6.992;2023-08-06T15:12:01;16.20;99.90
3172;DHT22;1597;51.572;6.992;2023-08-06T15:14:27;16.20;99.90
3172;DHT22;1597;51.572;6.992;2023-08-06T15:16:54;16.20;99.90
3172;DHT22;1597;51.572;6.992;2023-08-06T15:19:24;16.20;99.90
3172;DHT22;1597;51.572;6.992;2023-08-06T15:21:50;16.30;99.90
3172;DHT22;1597;51.572;6.992;2023-08-06T15:24:16;16.30;99.90
3172;DHT22;1597;51.572;6.992;2023-08-06T15:26:42;16.40;99.90
3172;DHT22;1597;51.572;6.992;2023-08-06T15:29:09;16.40;99.90
3172;DHT22;1597;51.572;6.992;2023-08-06T15:31:38;16.50;99.90
3172;DHT22;1597;51.572;6.992;2023-08-06T15:34:06;16.50;99.90
3172;DHT22;1597;51.572;6.992;2023-08-06T15:36:34;16.50;99.90
3172;DHT22;1597;51.572;6.992;2023-08-06T15:39:00;16.50;99.90
3172;DHT22;1597;51.572;6.992;2023-08-06T15:41:31;16.50;99.90
3172;DHT22;1597;51.572;6.992;2023-08-06T15:43:57;16.60;99.90
3172;DHT22;1597;51.572;6.992;2023-08-06T15:46:23;16.60;99.90
3172;DHT22;1597;51.572;6.992;2023-08-06T15:48:49;16.60;99.90
3172;DHT22;1597;51.572;6.992;2023-08-06T15:51:17;16.40;99.90
3172;DHT22;1597;51.572;6.992;2023-08-06T15:53:42;16.40;99.90
3172;DHT22;1597;51.572;6.992;2023-08-06T15:56:08;16.40;99.90
3172;DHT22;1597;51.572;6.992;2023-08-06T15:58:34;16.40;99.90
3172;DHT22;1597;51.572;6.992;2023-08-06T16:01:00;16.30;99.90
3172;DHT22;1597;51.572;6.992;2023-08-06T16:03:26;16.30;99.90
3172;DHT22;1597;51.572;6.992;2023-08-06T16:05:52;16.20;99.90
3172;DHT22;1597;51.572;6.992;2023-08-06T16:08:17;16.10;99.90